createdAt,value
2018-04-13T00:00:56.926Z,0.00
2018-04-13T00:01:56.931Z,0.00
2018-04-13T00:02:56.926Z,0.00
2018-04-13T00:03:57.591Z,0.00
2018-04-13T00:04:56.935Z,0.00
2018-04-13T00:05:57.555Z,0.00
2018-04-13T00:06:56.935Z,0.00
2018-04-13T00:09:28.603Z,0.00
2018-04-13T00:10:28.557Z,0.00
2018-04-13T00:11:28.563Z,0.00
2018-04-13T00:12:28.561Z,0.00
2018-04-13T00:17:02.388Z,0.00
2018-04-13T00:17:31.783Z,0.00
2018-04-13T00:21:56.090Z,0.00
2018-04-13T00:22:34.985Z,0.00
2018-04-13T00:26:59.759Z,0.00
2018-04-13T00:27:38.194Z,0.00
2018-04-13T00:28:38.815Z,0.00
2018-04-13T00:29:38.193Z,0.00
2018-04-13T00:30:38.205Z,0.00
2018-04-13T00:31:38.207Z,0.00
2018-04-13T00:32:38.198Z,0.00
2018-04-13T00:33:41.308Z,0.00
2018-04-13T00:34:38.204Z,0.00
2018-04-13T00:35:38.214Z,0.00
2018-04-13T00:36:38.207Z,0.00
2018-04-13T00:37:38.207Z,0.00
2018-04-13T01:18:25.739Z,0.00
2018-04-13T01:19:20.034Z,0.00
2018-04-13T01:20:20.032Z,0.00
2018-04-13T01:21:20.036Z,0.00
2018-04-13T01:22:25.241Z,0.00
2018-04-13T01:23:20.035Z,0.00
2018-04-13T01:24:20.036Z,0.00
2018-04-13T01:25:20.035Z,0.00
2018-04-13T01:26:20.040Z,0.00
2018-04-13T01:28:54.788Z,0.00
2018-04-13T01:29:51.640Z,0.00
2018-04-13T01:30:51.645Z,0.00
2018-04-13T01:31:51.646Z,0.00
2018-04-13T01:40:29.711Z,0.00
2018-04-13T01:41:29.707Z,0.00
2018-04-13T01:42:31.323Z,0.00
2018-04-13T01:43:29.702Z,0.00
2018-04-13T01:44:29.702Z,0.00
2018-04-13T01:45:29.707Z,0.00
2018-04-13T01:46:29.710Z,0.00
2018-04-13T01:55:28.748Z,0.00
2018-04-13T01:56:07.696Z,0.00
2018-04-13T02:09:22.219Z,0.00
2018-04-13T02:10:20.593Z,0.00
2018-04-13T02:11:20.589Z,0.00
2018-04-13T02:19:59.262Z,0.00
2018-04-13T02:20:58.563Z,0.00
2018-04-13T05:40:46.435Z,3612.00
2018-04-13T05:41:30.154Z,3640.00
2018-04-13T05:42:30.150Z,3668.00
2018-04-13T05:43:30.159Z,3684.00
2018-04-13T05:46:31.103Z,3724.00
2018-04-13T05:47:01.765Z,3776.00
2018-04-13T05:48:01.751Z,3852.00
2018-04-13T05:49:01.756Z,3956.00
2018-04-13T05:50:04.934Z,4036.00
2018-04-13T05:51:01.763Z,4048.00
2018-04-13T05:52:01.760Z,3996.00
2018-04-13T05:53:01.757Z,3932.00
2018-04-13T05:54:01.764Z,3876.00
2018-04-13T06:16:29.090Z,8236.00
2018-04-13T06:17:26.031Z,8476.00
2018-04-13T06:18:26.017Z,8736.00
2018-04-13T06:19:26.027Z,8840.00
2018-04-13T06:20:26.029Z,8744.00
2018-04-13T06:21:26.022Z,8588.00
2018-04-13T07:51:06.415Z,10568.00
2018-04-13T07:52:05.813Z,10812.00
2018-04-13T07:53:05.815Z,10964.00
2018-04-13T07:59:05.279Z,13908.00
2018-04-13T07:59:40.734Z,14920.00
2018-04-13T08:00:40.683Z,16644.00
2018-04-13T08:01:40.741Z,18720.00
2018-04-13T08:02:40.688Z,20192.00
2018-04-13T08:05:17.963Z,20736.00
2018-04-13T08:06:12.257Z,20352.00
2018-04-13T08:07:12.271Z,19776.00
2018-04-13T08:08:12.271Z,19008.00
2018-04-13T08:15:39.781Z,14856.00
2018-04-13T08:16:18.796Z,14504.00
2018-04-13T08:17:18.785Z,14276.00
2018-04-13T08:18:18.792Z,14652.00
2018-04-13T08:19:23.904Z,13720.00
2018-04-13T08:20:18.805Z,12448.00
2018-04-13T08:21:18.798Z,12628.00
2018-04-13T08:22:18.805Z,13480.00
2018-04-13T08:23:18.856Z,14228.00
2018-04-13T08:39:57.797Z,13628.00
2018-04-13T08:40:35.644Z,12020.00
2018-04-13T08:41:35.655Z,10992.00
2018-04-13T08:44:12.435Z,12044.00
2018-04-13T08:45:07.223Z,11060.00
2018-04-13T08:46:07.237Z,10772.00
2018-04-13T08:47:07.235Z,10284.00
2018-04-13T08:48:08.927Z,10092.00
2018-04-13T08:49:07.299Z,10780.00
2018-04-13T08:50:07.229Z,11244.00
2018-04-13T08:51:07.232Z,12548.00
2018-04-13T08:52:07.254Z,14316.00
2018-04-13T08:53:28.426Z,15148.00
2018-04-13T08:54:07.324Z,14752.00
2018-04-13T08:55:07.251Z,13180.00
2018-04-13T08:56:07.265Z,11148.00
2018-04-13T08:57:07.252Z,10204.00
2018-04-13T08:58:07.900Z,10888.00
2018-04-13T08:59:07.255Z,11888.00
2018-04-13T09:00:07.274Z,12408.00
2018-04-13T09:01:07.268Z,12860.00
2018-04-13T09:02:21.429Z,13356.00
2018-04-13T09:03:07.289Z,13604.00
2018-04-13T09:04:07.349Z,13528.00
2018-04-13T09:05:07.274Z,13204.00
2018-04-13T09:06:07.270Z,12872.00
2018-04-13T09:07:07.907Z,12636.00
2018-04-13T09:08:07.283Z,12508.00
2018-04-13T09:09:07.299Z,12628.00
2018-04-13T09:10:07.286Z,12448.00
2018-04-13T09:11:07.308Z,12016.00
2018-04-13T09:12:07.307Z,12416.00
2018-04-13T09:13:07.342Z,13212.00
2018-04-13T09:14:07.317Z,13256.00
2018-04-13T09:15:07.300Z,13340.00
2018-04-13T09:16:07.295Z,13800.00
2018-04-13T09:17:31.424Z,14348.00
2018-04-13T09:18:07.888Z,14992.00
2018-04-13T09:19:07.327Z,15472.00
2018-04-13T09:20:07.333Z,15588.00
2018-04-13T09:21:07.340Z,15508.00
2018-04-13T09:22:07.385Z,16080.00
2018-04-13T09:23:07.320Z,17000.00
2018-04-13T09:24:07.338Z,17792.00
2018-04-13T09:25:07.323Z,17728.00
2018-04-13T09:26:07.320Z,17124.00
2018-04-13T09:27:07.343Z,16712.00
2018-04-13T09:28:26.517Z,16744.00
2018-04-13T09:29:07.516Z,17324.00
2018-04-13T09:30:07.450Z,17952.00
2018-04-13T09:31:07.710Z,18368.00
2018-04-13T09:32:07.354Z,18880.00
2018-04-13T09:33:07.408Z,19488.00
2018-04-13T09:34:07.346Z,19904.00
2018-04-13T09:35:07.353Z,20000.00
2018-04-13T09:36:07.352Z,20064.00
2018-04-13T09:37:07.369Z,20320.00
2018-04-13T09:38:28.446Z,20832.00
2018-04-13T09:39:08.666Z,21184.00
2018-04-13T09:40:10.209Z,21216.00
2018-04-13T09:41:07.367Z,20640.00
2018-04-13T09:42:07.377Z,19680.00
2018-04-13T09:43:07.778Z,19552.00
2018-04-13T09:44:09.957Z,19424.00
2018-04-13T09:45:07.378Z,18784.00
2018-04-13T09:46:07.395Z,17420.00
2018-04-13T09:47:07.390Z,16208.00
2018-04-13T09:48:07.389Z,16108.00
2018-04-13T09:49:07.432Z,16700.00
2018-04-13T09:50:07.633Z,17256.00
2018-04-13T09:51:07.398Z,17920.00
2018-04-13T09:52:07.792Z,18304.00
2018-04-13T09:53:07.422Z,18816.00
2018-04-13T09:55:44.183Z,19424.00
2018-04-13T09:56:39.112Z,19712.00
2018-04-13T09:57:39.600Z,19840.00
2018-04-13T09:58:39.171Z,19712.00
2018-04-13T09:59:39.002Z,19008.00
2018-04-13T10:00:39.005Z,18464.00
2018-04-13T10:01:39.012Z,18752.00
2018-04-13T10:02:39.019Z,19584.00
2018-04-13T10:03:39.026Z,20064.00
2018-04-13T10:06:21.295Z,17632.00
2018-04-13T10:07:10.635Z,19136.00
2018-04-13T10:08:10.642Z,20864.00
2018-04-13T10:09:15.780Z,20960.00
2018-04-13T10:10:12.079Z,19840.00
2018-04-13T10:11:10.652Z,18720.00
2018-04-13T10:12:10.649Z,17244.00
2018-04-13T10:13:10.660Z,16188.00
2018-04-13T10:17:15.473Z,14504.00
2018-04-13T10:19:45.573Z,13060.00
2018-04-13T10:20:45.585Z,13420.00
2018-04-13T10:21:45.610Z,14052.00
2018-04-13T10:22:45.578Z,14268.00
2018-04-13T10:23:46.162Z,13936.00
2018-04-13T10:24:46.546Z,13312.00
2018-04-13T10:25:46.591Z,12508.00
2018-04-13T10:26:45.590Z,11912.00
2018-04-13T10:27:45.591Z,11404.00
2018-04-13T10:29:06.655Z,10876.00
2018-04-13T10:29:45.597Z,10420.00
2018-04-13T10:30:45.605Z,10064.00
2018-04-13T10:31:45.607Z,9880.00
2018-04-13T10:32:45.615Z,9832.00
2018-04-13T10:34:06.730Z,9880.00
2018-04-13T10:34:45.677Z,9944.00
2018-04-13T10:35:46.959Z,9904.00
2018-04-13T10:36:45.630Z,9816.00
2018-04-13T10:37:45.634Z,9836.00
2018-04-13T10:40:20.391Z,9740.00
2018-04-13T10:41:17.255Z,9904.00
2018-04-13T10:42:17.252Z,9924.00
2018-04-13T10:43:17.446Z,9688.00
2018-04-13T10:44:17.253Z,9452.00
2018-04-13T10:45:17.256Z,9484.00
2018-04-13T10:46:17.258Z,9780.00
2018-04-13T10:47:17.273Z,10184.00
2018-04-13T10:48:22.396Z,10532.00
2018-04-13T10:49:17.281Z,10768.00
2018-04-13T10:50:17.292Z,11072.00
2018-04-13T10:51:17.284Z,11608.00
2018-04-13T10:52:17.287Z,12492.00
2018-04-13T10:53:56.461Z,13524.00
2018-04-13T10:54:17.288Z,14436.00
2018-04-13T10:55:17.290Z,15320.00
2018-04-13T10:56:17.302Z,16036.00
2018-04-13T10:57:17.297Z,16164.00
2018-04-13T11:01:23.712Z,14776.00
2018-04-13T11:02:20.565Z,15492.00
2018-04-13T11:03:44.785Z,16876.00
2018-04-13T11:04:20.569Z,18560.00
2018-04-13T11:05:20.585Z,20032.00
2018-04-13T11:06:20.577Z,21216.00
2018-04-13T11:07:20.594Z,22272.00
2018-04-13T11:08:49.556Z,23488.00
2018-04-13T11:09:20.612Z,24544.00
2018-04-13T11:10:20.654Z,24896.00
2018-04-13T11:11:20.597Z,25024.00
2018-04-13T11:12:20.622Z,25440.00
2018-04-13T11:13:23.907Z,25792.00
2018-04-13T11:14:20.611Z,26016.00
2018-04-13T11:15:20.612Z,25984.00
2018-04-13T11:16:20.614Z,25952.00
2018-04-13T11:17:20.623Z,25664.00
2018-04-13T11:18:31.182Z,25280.00
2018-04-13T11:19:20.695Z,24576.00
2018-04-13T11:20:20.958Z,23296.00
2018-04-13T11:21:20.694Z,22272.00
2018-04-13T11:22:20.671Z,21888.00
2018-04-13T11:23:20.649Z,22496.00
2018-04-13T11:24:41.711Z,24128.00
2018-04-13T11:25:20.667Z,27904.00
2018-04-13T11:26:20.671Z,35104.00
2018-04-13T11:27:20.670Z,38784.00
2018-04-13T11:28:20.674Z,36384.00
2018-04-13T11:29:43.681Z,32608.00
2018-04-13T11:30:20.686Z,30208.00
2018-04-13T11:31:20.702Z,30176.00
2018-04-13T11:32:20.695Z,30368.00
2018-04-13T11:33:20.700Z,30720.00
2018-04-13T11:37:29.599Z,33792.00
2018-04-13T11:38:24.000Z,37504.00
2018-04-13T11:39:24.039Z,37504.00
2018-04-13T11:40:24.892Z,33056.00
2018-04-13T11:41:24.012Z,29088.00
2018-04-13T11:42:24.012Z,26720.00
2018-04-13T11:43:24.042Z,25024.00
2018-04-13T12:14:56.954Z,79232.00
2018-04-13T12:15:56.715Z,42720.00
2018-04-13T12:16:56.726Z,39328.00
2018-04-13T12:17:56.731Z,39264.00
2018-04-13T12:18:56.741Z,37376.00
2018-04-13T12:32:09.862Z,133792.00
2018-04-13T12:33:09.855Z,98688.00
2018-04-13T12:34:09.861Z,127680.00
2018-04-13T15:20:31.260Z,14448.00
2018-04-13T15:21:08.159Z,13536.00
